Time;durP1;ratioP1;P1;durP2;ratioP2;P2;SDS_P1;SDS_P2;PMS_P1;PMS_P2;Temp;Humidity;BMP_temperature;BMP_pressure;BME280_temperature;BME280_humidity;BME280_pressure;Samples;Min_cycle;Max_cycle;Signal;HPM_P1;HPM_P2
2024/01/24 00:02:00;;;;;;;9.25;2.55;;;;;;;;;;5034437;28;20786;-88
2024/01/24 00:04:26;;;;;;;10.10;2.40;;;;;;;;;;5041086;28;20575;-88
2024/01/24 00:06:52;;;;;;;6.65;2.63;;;;;;;;;;5025977;28;20029;-88
2024/01/24 00:09:18;;;;;;;7.70;2.30;;;;;;;;;;5031014;28;20040;-88
2024/01/24 00:11:44;;;;;;;10.35;2.38;;;;;;;;;;5027883;28;20046;-87
2024/01/24 00:14:10;;;;;;;7.93;2.08;;;;;;;;;;5033473;28;20041;-88
2024/01/24 00:16:37;;;;;;;9.48;2.70;;;;;;;;;;5026674;28;20047;-87
2024/01/24 00:19:02;;;;;;;6.07;1.83;;;;;;;;;;5023764;28;20037;-87
2024/01/24 00:21:28;;;;;;;10.82;2.55;;;;;;;;;;5028437;28;20074;-87
2024/01/24 00:23:54;;;;;;;7.18;2.20;;;;;;;;;;5048586;28;20041;-87
2024/01/24 00:26:20;;;;;;;11.45;2.10;;;;;;;;;;5041455;28;20314;-87
2024/01/24 00:28:46;;;;;;;7.38;2.22;;;;;;;;;;5021889;28;20073;-87
2024/01/24 00:31:12;;;;;;;13.80;2.42;;;;;;;;;;5034358;28;20041;-87
2024/01/24 00:33:38;;;;;;;9.75;2.20;;;;;;;;;;5022720;28;20045;-87
2024/01/24 00:36:05;;;;;;;9.60;2.42;;;;;;;;;;5028661;28;20038;-88
2024/01/24 00:38:31;;;;;;;10.73;2.33;;;;;;;;;;5031054;28;20144;-88
2024/01/24 00:40:57;;;;;;;9.32;3.15;;;;;;;;;;5028843;28;20041;-87
2024/01/24 00:43:23;;;;;;;15.45;2.33;;;11.90;99.90;;;;;;5029061;28;20091;-88
2024/01/24 00:45:49;;;;;;;14.25;2.42;;;;;;;;;;5020101;28;20041;-87
2024/01/24 00:48:16;;;;;;;9.30;1.98;;;;;;;;;;5026606;28;20091;-88
2024/01/24 00:50:42;;;;;;;4.97;1.70;;;;;;;;;;5031714;28;20055;-86
2024/01/24 00:53:08;;;;;;;7.35;2.70;;;;;;;;;;5029245;28;20043;-87
2024/01/24 00:55:34;;;;;;;26.67;4.82;;;;;;;;;;5031606;28;20123;-87
2024/01/24 00:58:00;;;;;;;10.45;2.30;;;;;;;;;;5028084;28;20132;-87
2024/01/24 01:00:26;;;;;;;7.90;1.55;;;;;;;;;;5024956;28;20045;-87
2024/01/24 01:02:52;;;;;;;7.93;1.60;;;;;;;;;;5038960;28;20098;-87
2024/01/24 01:05:18;;;;;;;9.98;1.98;;;;;;;;;;5033795;28;20441;-87
2024/01/24 01:07:44;;;;;;;5.50;1.83;;;;;;;;;;5033286;28;20052;-89
2024/01/24 01:10:10;;;;;;;8.35;1.98;;;;;;;;;;5025341;28;20049;-87
2024/01/24 01:12:36;;;;;;;9.73;1.58;;;;;;;;;;5036668;28;20044;-88
2024/01/24 01:15:03;;;;;;;6.50;1.58;;;11.80;99.90;;;;;;5038799;28;20456;-87
2024/01/24 01:17:29;;;;;;;7.22;1.77;;;;;;;;;;5040281;28;20029;-87
2024/01/24 01:19:55;;;;;;;6.38;1.67;;;;;;;;;;5053112;28;20048;-87
2024/01/24 01:22:21;;;;;;;6.63;1.80;;;;;;;;;;5035895;28;20045;-87
2024/01/24 01:24:47;;;;;;;3.25;1.33;;;;;;;;;;5033395;28;20037;-87
2024/01/24 01:27:13;;;;;;;5.65;1.77;;;;;;;;;;5031471;28;20458;-87
2024/01/24 01:29:39;;;;;;;7.53;1.50;;;;;;;;;;5036441;28;20084;-87
2024/01/24 01:32:06;;;;;;;5.00;1.50;;;12.10;99.90;;;;;;5034734;28;20040;-87
2024/01/24 01:34:32;;;;;;;8.30;1.58;;;;;;;;;;5056052;28;20033;-89
2024/01/24 01:36:57;;;;;;;8.10;1.33;;;;;;;;;;5061114;28;20051;-89
2024/01/24 01:39:24;;;;;;;7.43;1.63;;;;;;;;;;5044527;28;20053;-88
2024/01/24 01:41:50;;;;;;;6.55;1.73;;;;;;;;;;5035853;28;20052;-87
2024/01/24 01:44:17;;;;;;;9.52;1.60;;;;;;;;;;5034097;28;20044;-87
2024/01/24 01:46:44;;;;;;;6.20;2.13;;;;;;;;;;5028453;28;20044;-88
2024/01/24 01:49:11;;;;;;;4.60;1.30;;;;;;;;;;5047989;28;20879;-87
2024/01/24 01:51:37;;;;;;;9.80;1.50;;;;;;;;;;5032954;28;20048;-87
2024/01/24 01:54:03;;;;;;;12.25;1.67;;;11.90;99.90;;;;;;5038771;28;20780;-87
2024/01/24 01:56:30;;;;;;;5.57;1.38;;;;;;;;;;5047642;28;20040;-88
2024/01/24 01:58:56;;;;;;;7.22;1.35;;;;;;;;;;5045960;28;20090;-89
2024/01/24 02:01:22;;;;;;;4.93;1.55;;;;;;;;;;5036346;28;20065;-88
2024/01/24 02:03:48;;;;;;;6.68;1.70;;;;;;;;;;5048110;28;20048;-88
2024/01/24 02:06:14;;;;;;;7.70;2.22;;;;;;;;;;5035724;28;20048;-88
2024/01/24 02:08:40;;;;;;;10.02;1.77;;;;;;;;;;5047071;28;20094;-87
2024/01/24 02:11:07;;;;;;;7.75;2.33;;;;;;;;;;5037427;28;20036;-87
2024/01/24 02:13:33;;;;;;;9.32;1.77;;;;;;;;;;5032925;28;20105;-89
2024/01/24 02:15:59;;;;;;;6.80;1.75;;;;;;;;;;5039509;28;20044;-87
2024/01/24 02:18:25;;;;;;;8.20;2.05;;;;;;;;;;5035559;28;20091;-87
2024/01/24 02:20:51;;;;;;;7.38;2.28;;;;;;;;;;5033584;28;20052;-88
2024/01/24 02:23:23;;;;;;;9.48;2.00;;;;;;;;;;5027934;28;20048;-87
2024/01/24 02:25:50;;;;;;;11.40;1.65;;;11.80;99.90;;;;;;5035238;28;20036;-87
2024/01/24 02:28:16;;;;;;;9.48;1.73;;;;;;;;;;5035900;28;20643;-88
2024/01/24 02:30:42;;;;;;;7.07;1.83;;;;;;;;;;5034754;28;20676;-87
2024/01/24 02:33:08;;;;;;;11.65;2.05;;;;;;;;;;5044303;28;20095;-89
2024/01/24 02:35:34;;;;;;;4.95;1.85;;;;;;;;;;5029521;28;20036;-88
2024/01/24 02:38:01;;;;;;;5.40;1.58;;;;;;;;;;5043190;28;20064;-87
2024/01/24 02:40:27;;;;;;;7.78;1.95;;;;;;;;;;5026710;28;20052;-87
2024/01/24 02:42:53;;;;;;;5.57;1.77;;;;;;;;;;5026832;28;20673;-87
2024/01/24 02:45:20;;;;;;;6.88;2.17;;;;;;;;;;5027130;28;20142;-87
2024/01/24 02:47:46;;;;;;;13.30;2.50;;;;;;;;;;5040890;28;20068;-87
2024/01/24 02:50:12;;;;;;;12.27;2.30;;;;;;;;;;5036573;28;20049;-88
2024/01/24 02:52:41;;;;;;;8.93;2.15;;;11.90;99.90;;;;;;5031952;28;20621;-88
2024/01/24 02:55:07;;;;;;;10.80;2.03;;;;;;;;;;5019349;28;20402;-87
2024/01/24 02:57:33;;;;;;;15.32;2.67;;;;;;;;;;5032136;28;20043;-87
2024/01/24 02:59:59;;;;;;;13.07;3.00;;;;;;;;;;5028948;28;20089;-87
2024/01/24 03:02:26;;;;;;;19.42;3.53;;;;;;;;;;5030017;28;20093;-87
2024/01/24 03:04:52;;;;;;;9.93;2.78;;;;;;;;;;5061004;28;20040;-87
2024/01/24 03:07:18;;;;;;;10.88;3.38;;;;;;;;;;5047197;28;20044;-87
2024/01/24 03:09:44;;;;;;;21.33;3.40;;;;;;;;;;5048005;28;20094;-87
2024/01/24 03:12:12;;;;;;;13.30;3.17;;;11.50;99.90;;;;;;5045919;28;20722;-87
2024/01/24 03:14:38;;;;;;;13.25;3.53;;;;;;;;;;5061162;28;20051;-88
2024/01/24 03:17:04;;;;;;;17.02;3.13;;;;;;;;;;5042652;28;20098;-86
2024/01/24 03:19:30;;;;;;;16.55;3.38;;;;;;;;;;5039223;28;20576;-87
2024/01/24 03:21:57;;;;;;;14.00;2.75;;;;;;;;;;5047022;28;20136;-87
2024/01/24 03:24:23;;;;;;;19.92;4.28;;;;;;;;;;5029707;28;20099;-87
2024/01/24 03:26:49;;;;;;;22.27;4.30;;;;;;;;;;5037635;28;20044;-87
2024/01/24 03:29:15;;;;;;;17.27;3.22;;;;;;;;;;5033732;28;20056;-88
2024/01/24 03:31:44;;;;;;;23.45;3.40;;;11.40;99.90;;;;;;5043677;28;20517;-87
2024/01/24 03:34:13;;;;;;;15.07;2.90;;;11.60;99.90;;;;;;5034985;28;20045;-88
2024/01/24 03:36:39;;;;;;;14.80;2.50;;;;;;;;;;5039962;28;20037;-87
2024/01/24 03:39:05;;;;;;;16.75;2.78;;;;;;;;;;5017175;28;20145;-88
2024/01/24 03:41:31;;;;;;;14.80;3.15;;;;;;;;;;5048379;28;20060;-87
2024/01/24 03:43:57;;;;;;;18.02;3.42;;;;;;;;;;5044416;28;20040;-87
2024/01/24 03:46:23;;;;;;;15.38;4.22;;;;;;;;;;5049492;28;20079;-87
2024/01/24 03:48:49;;;;;;;23.60;4.63;;;;;;;;;;5049784;28;20860;-87
2024/01/24 03:51:15;;;;;;;18.45;3.45;;;;;;;;;;5054322;28;20773;-87
2024/01/24 03:53:41;;;;;;;16.40;3.55;;;;;;;;;;5044955;28;20040;-87
2024/01/24 03:56:07;;;;;;;16.38;3.72;;;;;;;;;;5042301;28;20044;-87
2024/01/24 03:58:34;;;;;;;17.70;4.00;;;;;;;;;;5033233;28;20045;-87
2024/01/24 04:01:01;;;;;;;21.80;4.50;;;;;;;;;;5052766;28;20051;-88
2024/01/24 04:03:27;;;;;;;19.10;3.22;;;;;;;;;;5028268;28;20080;-87
2024/01/24 04:05:53;;;;;;;14.23;3.70;;;;;;;;;;5031213;28;20044;-88
2024/01/24 04:08:19;;;;;;;18.83;4.95;;;;;;;;;;5018504;28;20388;-87
2024/01/24 04:10:45;;;;;;;15.82;3.40;;;;;;;;;;5029678;28;20952;-87
2024/01/24 04:13:11;;;;;;;22.77;4.57;;;;;;;;;;5042199;28;20058;-87
2024/01/24 04:15:37;;;;;;;17.23;3.40;;;;;;;;;;5033435;28;20049;-87
2024/01/24 04:18:03;;;;;;;16.70;3.83;;;;;;;;;;5057869;28;20095;-87
2024/01/24 04:20:29;;;;;;;15.35;3.22;;;;;;;;;;5029533;28;20049;-88
2024/01/24 04:22:55;;;;;;;19.10;3.60;;;;;;;;;;5042379;28;20135;-87
2024/01/24 04:25:21;;;;;;;17.63;3.78;;;;;;;;;;5029922;28;20147;-87
2024/01/24 04:27:48;;;;;;;21.25;3.95;;;;;;;;;;5059320;28;20040;-88
2024/01/24 04:30:13;;;;;;;20.80;4.22;;;11.50;99.90;;;;;;5043451;28;20044;-87
2024/01/24 04:32:40;;;;;;;22.92;4.00;;;;;;;;;;5036530;28;20502;-87
2024/01/24 04:35:06;;;;;;;22.33;3.67;;;11.40;99.90;;;;;;5036109;28;20045;-87
2024/01/24 04:37:32;;;;;;;22.02;4.47;;;;;;;;;;5042176;28;20051;-88
2024/01/24 04:39:59;;;;;;;20.98;4.28;;;;;;;;;;5047965;28;20040;-87
2024/01/24 04:42:24;;;;;;;26.85;4.50;;;;;;;;;;5040683;28;20044;-87
2024/01/24 04:44:51;;;;;;;20.73;3.50;;;;;;;;;;5040790;28;20048;-87
2024/01/24 04:47:16;;;;;;;27.25;5.00;;;;;;;;;;5035004;28;20040;-88
2024/01/24 04:49:42;;;;;;;25.95;4.30;;;;;;;;;;5032620;28;20059;-88
2024/01/24 04:52:08;;;;;;;24.92;4.97;;;;;;;;;;5039383;28;20048;-87
2024/01/24 04:54:35;;;;;;;19.08;3.95;;;;;;;;;;5056671;28;20117;-89
2024/01/24 04:57:02;;;;;;;25.38;4.43;;;;;;;;;;5030794;28;20056;-87
2024/01/24 04:59:29;;;;;;;18.90;3.63;;;11.30;99.90;;;;;;5019977;28;20561;-89
2024/01/24 05:01:55;;;;;;;23.27;5.47;;;;;;;;;;5039799;28;20059;-87
2024/01/24 05:04:21;;;;;;;25.92;5.53;;;;;;;;;;5031378;28;20041;-87
2024/01/24 05:06:47;;;;;;;29.27;5.57;;;;;;;;;;5035365;28;20051;-87
2024/01/24 05:09:14;;;;;;;28.10;5.55;;;;;;;;;;5033365;28;20704;-87
2024/01/24 05:11:43;;;;;;;24.98;5.30;;;;;;;;;;5039044;28;20087;-87
2024/01/24 05:14:09;;;;;;;19.50;4.50;;;;;;;;;;5037249;28;20090;-87
2024/01/24 05:16:40;;;;;;;27.27;5.03;;;11.30;99.90;;;;;;5021839;28;20041;-88
2024/01/24 05:19:06;;;;;;;30.98;6.25;;;;;;;;;;5018645;28;20128;-87
2024/01/24 05:21:39;;;;;;;25.90;6.18;;;;;;;;;;5035518;28;20505;-88
2024/01/24 05:24:05;;;;;;;27.27;5.97;;;;;;;;;;5027747;28;20442;-87
2024/01/24 05:26:31;;;;;;;22.80;4.95;;;;;;;;;;5032181;28;20498;-87
2024/01/24 05:28:57;;;;;;;21.60;5.38;;;;;;;;;;5036439;28;20070;-87
2024/01/24 05:31:23;;;;;;;31.20;5.85;;;;;;;;;;5029949;28;20106;-88
2024/01/24 05:33:49;;;;;;;30.52;4.78;;;;;;;;;;5044050;28;20037;-87
2024/01/24 05:36:15;;;;;;;26.42;6.10;;;;;;;;;;5043839;28;20752;-87
2024/01/24 05:38:41;;;;;;;27.40;5.57;;;;;;;;;;5027983;28;20110;-87
2024/01/24 05:41:09;;;;;;;23.80;6.25;;;;;;;;;;5022621;28;20051;-87
2024/01/24 05:43:35;;;;;;;29.15;5.78;;;;;;;;;;5047912;28;20045;-86
2024/01/24 05:46:00;;;;;;;35.33;6.78;;;;;;;;;;5031011;28;20066;-87
2024/01/24 05:48:26;;;;;;;31.35;5.60;;;;;;;;;;5031487;28;20048;-87
2024/01/24 05:50:52;;;;;;;29.70;5.45;;;;;;;;;;5030993;28;20045;-87
2024/01/24 05:53:18;;;;;;;32.13;6.15;;;;;;;;;;5039980;28;20556;-88
2024/01/24 05:55:46;;;;;;;30.35;6.00;;;;;;;;;;5053673;28;20040;-87
2024/01/24 05:58:12;;;;;;;30.20;5.57;;;;;;;;;;5023389;28;20075;-87
2024/01/24 06:00:38;;;;;;;35.45;6.65;;;;;;;;;;5050637;28;20053;-87
2024/01/24 06:03:04;;;;;;;30.08;6.40;;;;;;;;;;5028172;28;20053;-87
2024/01/24 06:05:30;;;;;;;34.08;7.20;;;;;;;;;;5031900;28;20079;-86
2024/01/24 06:07:56;;;;;;;31.05;5.57;;;;;;;;;;5033941;28;20048;-86
2024/01/24 06:10:22;;;;;;;38.55;5.82;;;;;;;;;;5032174;28;20481;-86
2024/01/24 06:12:48;;;;;;;28.58;7.85;;;;;;;;;;5028144;28;20082;-86
2024/01/24 06:15:14;;;;;;;25.65;5.85;;;;;;;;;;5028856;28;20117;-87
2024/01/24 06:17:40;;;;;;;28.90;6.35;;;;;;;;;;5029857;28;20094;-87
2024/01/24 06:20:07;;;;;;;29.77;7.00;;;;;;;;;;5046951;28;20066;-87
2024/01/24 06:22:33;;;;;;;28.05;6.30;;;;;;;;;;5027643;28;20037;-86
2024/01/24 06:25:01;;;;;;;34.78;6.70;;;;;;;;;;5028477;28;20110;-88
2024/01/24 06:27:27;;;;;;;35.75;7.35;;;;;;;;;;5027028;28;20423;-87
2024/01/24 06:29:53;;;;;;;29.80;6.05;;;;;;;;;;5031501;28;20055;-86
2024/01/24 06:32:19;;;;;;;31.63;8.02;;;;;;;;;;5032450;28;20052;-88
2024/01/24 06:34:45;;;;;;;26.63;5.68;;;;;;;;;;5030884;28;20040;-87
2024/01/24 06:37:11;;;;;;;36.65;7.07;;;;;;;;;;5031960;28;20490;-86
2024/01/24 06:39:37;;;;;;;26.20;6.53;;;;;;;;;;5027372;28;20045;-87
2024/01/24 06:42:03;;;;;;;29.35;5.90;;;;;;;;;;5029035;28;20040;-87
2024/01/24 06:44:29;;;;;;;31.95;7.90;;;;;;;;;;5044231;28;20052;-88
2024/01/24 06:46:55;;;;;;;33.67;6.88;;;;;;;;;;5050968;28;20071;-87
2024/01/24 06:49:21;;;;;;;35.63;5.60;;;;;;;;;;5034325;28;20528;-86
2024/01/24 06:51:47;;;;;;;26.75;5.47;;;;;;;;;;5020322;28;20049;-86
2024/01/24 06:54:13;;;;;;;35.72;6.63;;;;;;;;;;5032355;28;20045;-87
2024/01/24 06:56:39;;;;;;;31.15;5.63;;;;;;;;;;5036677;28;20037;-87
2024/01/24 06:59:05;;;;;;;26.55;7.20;;;;;;;;;;5033070;28;20037;-87
2024/01/24 07:01:31;;;;;;;30.20;5.93;;;;;;;;;;5032257;28;20080;-86
2024/01/24 07:03:57;;;;;;;33.97;7.30;;;;;;;;;;5032016;28;20056;-87
2024/01/24 07:06:24;;;;;;;35.85;6.25;;;;;;;;;;5031996;28;20675;-87
2024/01/24 07:08:50;;;;;;;32.00;6.13;;;;;;;;;;5035682;28;20040;-88
2024/01/24 07:11:17;;;;;;;33.63;6.65;;;;;;;;;;5033989;28;20049;-88
2024/01/24 07:13:43;;;;;;;32.70;8.40;;;;;;;;;;5030943;28;20040;-87
2024/01/24 07:16:09;;;;;;;37.85;6.95;;;;;;;;;;5032835;28;20048;-87
2024/01/24 07:18:36;;;;;;;31.02;6.95;;;;;;;;;;5037050;28;20047;-89
2024/01/24 07:21:06;;;;;;;37.97;7.18;;;10.90;99.90;;;;;;5038009;28;20049;-86
2024/01/24 07:23:32;;;;;;;32.65;6.80;;;;;;;;;;5030390;28;20075;-87
2024/01/24 07:25:58;;;;;;;38.53;7.35;;;;;;;;;;5023586;28;20142;-87
2024/01/24 07:28:24;;;;;;;35.60;6.82;;;;;;;;;;5039601;28;20375;-87
2024/01/24 07:30:50;;;;;;;27.63;5.95;;;;;;;;;;5034806;28;20040;-86
2024/01/24 07:33:16;;;;;;;34.53;6.20;;;;;;;;;;5030707;28;20462;-88
2024/01/24 07:35:43;;;;;;;36.28;7.32;;;;;;;;;;5030215;28;20070;-87
2024/01/24 07:38:09;;;;;;;28.27;7.03;;;;;;;;;;5033210;28;20152;-87
2024/01/24 07:40:37;;;;;;;34.42;6.60;;;;;;;;;;5051831;28;20037;-87
2024/01/24 07:43:03;;;;;;;36.33;6.95;;;;;;;;;;5057509;28;20413;-87
2024/01/24 07:45:29;;;;;;;42.67;8.25;;;;;;;;;;5029999;28;20136;-87
2024/01/24 07:47:55;;;;;;;34.25;8.23;;;;;;;;;;5029592;28;20037;-87
2024/01/24 07:50:21;;;;;;;31.35;6.57;;;;;;;;;;5029991;28;20124;-86
2024/01/24 07:52:47;;;;;;;38.95;7.50;;;;;;;;;;5045687;28;20048;-86
2024/01/24 07:55:13;;;;;;;43.50;8.68;;;10.60;99.90;;;;;;5028761;28;20053;-86
2024/01/24 07:57:40;;;;;;;41.25;8.88;;;;;;;;;;5033195;28;20040;-86
2024/01/24 08:00:06;;;;;;;33.83;7.40;;;10.60;99.90;;;;;;5030130;28;20044;-86
2024/01/24 08:02:32;;;;;;;37.28;6.93;;;;;;;;;;5024659;28;20741;-86
2024/01/24 08:04:59;;;;;;;28.85;6.28;;;;;;;;;;5028802;28;20048;-87
2024/01/24 08:07:25;;;;;;;31.05;8.30;;;;;;;;;;5029580;28;20041;-85
2024/01/24 08:09:51;;;;;;;36.22;6.38;;;;;;;;;;5045058;28;20056;-87
2024/01/24 08:12:18;;;;;;;36.60;6.18;;;;;;;;;;5046542;28;20056;-88
2024/01/24 08:14:44;;;;;;;29.40;7.20;;;;;;;;;;5029242;28;20040;-87
2024/01/24 08:17:10;;;;;;;31.27;6.15;;;;;;;;;;5035934;28;20045;-86
2024/01/24 08:19:38;;;;;;;39.95;6.93;;;;;;;;;;5031737;28;20469;-87
2024/01/24 08:22:04;;;;;;;47.08;7.95;;;10.50;99.90;;;;;;5038282;28;20043;-86
2024/01/24 08:24:30;;;;;;;29.48;6.63;;;;;;;;;;5030872;28;20572;-87
2024/01/24 08:26:56;;;;;;;38.05;8.35;;;;;;;;;;5031067;28;20082;-85
2024/01/24 08:29:25;;;;;;;33.70;6.60;;;;;;;;;;5048073;28;20055;-89
2024/01/24 08:31:51;;;;;;;32.70;6.82;;;;;;;;;;5010233;28;20049;-86
2024/01/24 08:34:17;;;;;;;34.40;6.13;;;;;;;;;;5010004;28;20052;-87
2024/01/24 08:36:44;;;;;;;37.78;7.50;;;;;;;;;;5012650;28;20094;-87
2024/01/24 08:39:10;;;;;;;40.28;7.25;;;;;;;;;;5024804;28;20060;-87
2024/01/24 08:41:36;;;;;;;30.95;8.85;;;;;;;;;;5030633;23;20530;-70
2024/01/24 08:44:04;;;;;;;35.67;6.85;;;;;;;;;;4985224;28;20042;-70
2024/01/24 08:46:30;;;;;;;47.92;7.53;;;;;;;;;;4988645;28;20081;-70
2024/01/24 08:48:56;;;;;;;42.83;8.20;;;;;;;;;;4982718;28;20121;-71
2024/01/24 08:51:25;;;;;;;40.63;9.02;;;;;;;;;;4983047;28;20799;-70
2024/01/24 08:53:51;;;;;;;40.00;9.10;;;;;;;;;;4984958;28;20084;-70
2024/01/24 08:56:18;;;;;;;49.42;9.90;;;;;;;;;;4986162;28;20057;-71
2024/01/24 08:58:44;;;;;;;37.85;7.18;;;;;;;;;;4992453;28;20777;-70
2024/01/24 09:01:10;;;;;;;31.13;5.72;;;;;;;;;;4977268;28;20038;-71
2024/01/24 09:03:36;;;;;;;39.22;7.72;;;;;;;;;;4980391;28;20049;-72
2024/01/24 09:06:02;;;;;;;30.88;7.78;;;;;;;;;;4983327;28;20140;-70
2024/01/24 09:08:28;;;;;;;30.05;5.55;;;;;;;;;;4988157;28;20046;-70
2024/01/24 09:10:54;;;;;;;33.67;7.88;;;;;;;;;;4983074;28;20052;-71
2024/01/24 09:13:22;;;;;;;28.08;6.15;;;11.00;99.90;;;;;;4981633;28;20042;-70
2024/01/24 09:15:48;;;;;;;30.23;6.63;;;;;;;;;;4967126;28;20046;-70
2024/01/24 09:18:17;;;;;;;31.13;6.20;;;;;;;;;;4981372;28;20504;-71
2024/01/24 09:20:43;;;;;;;25.50;5.72;;;;;;;;;;4982074;28;20047;-70
2024/01/24 09:23:10;;;;;;;33.33;6.25;;;;;;;;;;4978800;28;20053;-70
2024/01/24 09:25:36;;;;;;;23.38;5.50;;;;;;;;;;4979567;28;20046;-70
2024/01/24 09:28:02;;;;;;;31.05;6.63;;;;;;;;;;4979006;28;20057;-70
2024/01/24 09:30:28;;;;;;;29.60;6.22;;;;;;;;;;4977268;28;20046;-71
2024/01/24 09:32:54;;;;;;;29.05;6.00;;;;;;;;;;4969034;28;20149;-71
2024/01/24 09:35:20;;;;;;;27.30;5.53;;;11.10;99.90;;;;;;4981843;28;20065;-71
2024/01/24 09:37:46;;;;;;;28.35;5.82;;;;;;;;;;4984082;28;20141;-71
2024/01/24 09:40:14;;;;;;;25.80;6.38;;;11.50;99.90;;;;;;4982173;28;20100;-71
2024/01/24 09:42:43;;;;;;;18.73;4.88;;;11.30;99.90;;;;;;4980947;28;20093;-71
2024/01/24 09:45:09;;;;;;;31.42;7.00;;;11.60;99.90;;;;;;4971335;28;20046;-71
2024/01/24 09:47:37;;;;;;;28.40;6.45;;;11.60;99.90;;;;;;4975512;28;20049;-70
2024/01/24 09:50:04;;;;;;;26.75;6.07;;;11.70;99.90;;;;;;4975975;28;20057;-70
2024/01/24 09:52:32;;;;;;;29.77;6.78;;;11.90;99.90;;;;;;4973809;28;20117;-71
2024/01/24 09:55:05;;;;;;;26.30;6.13;;;12.00;99.90;;;;;;4981204;28;20042;-71
2024/01/24 09:57:32;;;;;;;22.45;5.20;;;12.00;99.90;;;;;;4976330;28;20042;-71
2024/01/24 09:59:58;;;;;;;30.20;6.63;;;;;;;;;;4976195;28;20046;-71
2024/01/24 10:02:26;;;;;;;34.88;6.45;;;12.10;99.90;;;;;;4979494;28;20050;-70
2024/01/24 10:04:52;;;;;;;27.73;5.70;;;;;;;;;;4974405;28;20054;-70
2024/01/24 10:07:19;;;;;;;28.58;5.10;;;12.00;99.90;;;;;;4979222;28;20122;-70
2024/01/24 10:09:46;;;;;;;26.33;5.30;;;12.10;99.90;;;;;;4977818;28;20042;-70
2024/01/24 10:12:12;;;;;;;29.88;6.00;;;;;;;;;;4975186;28;20050;-71
2024/01/24 10:14:40;;;;;;;27.80;5.50;;;12.00;99.90;;;;;;4976987;28;20046;-71
2024/01/24 10:17:07;;;;;;;23.15;5.50;;;;;;;;;;4981226;28;20053;-70
2024/01/24 10:19:33;;;;;;;28.63;5.80;;;;;;;;;;4979067;28;20066;-70
2024/01/24 10:21:59;;;;;;;27.02;5.95;;;;;;;;;;4984942;28;20137;-70
2024/01/24 10:24:26;;;;;;;31.05;6.18;;;;;;;;;;4986578;28;20046;-70
2024/01/24 10:26:52;;;;;;;22.50;5.97;;;;;;;;;;4982441;28;20563;-70
2024/01/24 10:29:18;;;;;;;27.45;5.85;;;;;;;;;;4989203;28;20050;-70
2024/01/24 10:31:44;;;;;;;28.73;5.65;;;;;;;;;;4975481;28;20551;-70
2024/01/24 10:34:10;;;;;;;23.38;4.90;;;;;;;;;;4983929;28;20045;-70
2024/01/24 10:36:38;;;;;;;20.70;5.38;;;;;;;;;;4980012;28;20050;-70
2024/01/24 10:39:09;;;;;;;27.05;5.72;;;12.20;99.90;;;;;;4985794;28;20050;-70
2024/01/24 10:41:40;;;;;;;25.48;5.10;;;12.00;99.90;;;;;;4988162;28;20623;-70
2024/01/24 10:44:09;;;;;;;28.10;5.65;;;12.10;99.90;;;;;;4987860;28;20061;-70
2024/01/24 10:46:36;;;;;;;17.65;5.25;;;12.10;99.90;;;;;;4982796;28;20050;-70
2024/01/24 10:49:03;;;;;;;24.65;5.68;;;12.10;99.90;;;;;;4982321;28;20062;-70
2024/01/24 10:51:29;;;;;;;27.73;5.88;;;12.10;99.90;;;;;;4982461;28;20070;-70
2024/01/24 10:53:55;;;;;;;25.58;4.68;;;;;;;;;;4980206;28;20196;-70
2024/01/24 10:56:24;;;;;;;19.67;5.25;;;12.00;99.90;;;;;;4979825;28;20056;-70
2024/01/24 10:58:49;;;;;;;25.25;5.90;;;;;;;;;;4977999;28;20492;-70
2024/01/24 11:01:16;;;;;;;22.67;6.32;;;;;;;;;;4977326;28;20042;-71
2024/01/24 11:03:45;;;;;;;28.42;4.93;;;11.90;99.90;;;;;;4990600;28;20062;-70
2024/01/24 11:06:16;;;;;;;23.38;4.30;;;12.10;99.90;;;;;;4997995;28;20559;-71
2024/01/24 11:09:08;;;;;;;23.02;4.57;;;12.00;99.90;;;;;;4977081;28;20074;-70
2024/01/24 11:11:35;;;;;;;28.05;5.78;;;12.00;99.90;;;;;;4999321;28;20046;-70
2024/01/24 11:14:02;;;;;;;27.35;4.75;;;12.00;99.90;;;;;;4980200;28;20038;-70
2024/01/24 11:16:36;;;;;;;23.83;4.68;;;11.90;99.90;;;;;;4986077;28;20496;-70
2024/01/24 11:19:22;;;;;;;34.70;6.35;;;;;;;;;;4984305;28;20492;-70
2024/01/24 11:21:48;;;;;;;23.73;5.45;;;12.00;99.90;;;;;;4977853;28;20552;-70
2024/01/24 11:24:40;;;;;;;25.52;4.88;;;12.10;99.90;;;;;;4981993;28;20034;-71
2024/01/24 11:27:32;;;;;;;20.35;5.35;;;11.90;99.90;;;;;;4979634;28;20084;-70
2024/01/24 11:29:59;;;;;;;22.10;4.70;;;;;;;;;;4982580;28;20074;-70
2024/01/24 11:32:44;;;;;;;23.92;5.43;;;;;;;;;;4980782;28;20046;-70
2024/01/24 11:35:31;;;;;;;29.88;5.47;;;12.10;99.90;;;;;;4980703;28;20038;-70
2024/01/24 11:38:22;;;;;;;18.05;4.68;;;12.20;99.90;;;;;;4975764;28;20457;-70
2024/01/24 11:40:50;;;;;;;19.92;5.15;;;;;;;;;;4969627;28;20062;-70
2024/01/24 11:43:34;;;;;;;28.23;5.35;;;12.10;99.90;;;;;;4967016;28;20058;-70
2024/01/24 11:46:01;;;;;;;24.20;5.07;;;;;;;;;;4970923;28;20112;-70
2024/01/24 11:48:27;;;;;;;29.95;5.05;;;;;;;;;;4977197;28;20527;-70
2024/01/24 11:51:04;;;;;;;22.00;4.70;;;11.80;99.90;;;;;;4978756;28;20806;-70
2024/01/24 11:53:30;;;;;;;21.17;4.68;;;;;;;;;;4972546;28;20043;-70
2024/01/24 11:55:58;;;;;;;32.28;5.40;;;;;;;;;;4975135;28;20043;-70
2024/01/24 11:58:28;;;;;;;26.73;5.45;;;;;;;;;;4972572;28;20671;-70
2024/01/24 12:00:55;;;;;;;28.13;5.38;;;11.70;99.90;;;;;;4979711;28;20065;-70
2024/01/24 12:03:21;;;;;;;27.83;5.55;;;;;;;;;;4969783;28;20085;-70
2024/01/24 12:05:48;;;;;;;24.63;5.78;;;;;;;;;;4976928;28;20189;-70
2024/01/24 12:08:14;;;;;;;28.45;5.10;;;12.00;99.90;;;;;;4979293;28;20070;-70
2024/01/24 12:10:40;;;;;;;21.58;4.97;;;11.90;99.90;;;;;;4971772;28;20051;-70
2024/01/24 12:13:07;;;;;;;32.95;4.75;;;11.90;99.90;;;;;;4975087;28;20046;-70
2024/01/24 12:15:36;;;;;;;24.70;4.90;;;;;;;;;;4976949;28;20057;-70
2024/01/24 12:18:07;;;;;;;23.58;4.15;;;11.80;99.90;;;;;;4978613;28;20459;-70
2024/01/24 12:20:34;;;;;;;26.40;6.05;;;11.70;99.90;;;;;;4977112;28;20428;-70
2024/01/24 12:23:00;;;;;;;18.95;4.78;;;;;;;;;;4974131;28;20042;-70
2024/01/24 12:25:29;;;;;;;20.38;5.53;;;;;;;;;;4972472;28;20054;-70
2024/01/24 12:27:57;;;;;;;23.45;4.95;;;11.90;99.90;;;;;;4980908;28;20576;-70
2024/01/24 12:30:26;;;;;;;27.00;4.47;;;12.00;99.90;;;;;;4977494;28;20043;-70
2024/01/24 12:32:56;;;;;;;25.98;5.13;;;12.00;99.90;;;;;;4981428;28;20092;-70
2024/01/24 12:35:23;;;;;;;24.05;5.18;;;11.90;99.90;;;;;;4981516;28;20435;-69
2024/01/24 12:37:49;;;;;;;30.33;5.20;;;;;;;;;;4997089;28;20044;-70
2024/01/24 12:40:16;;;;;;;28.90;5.75;;;11.90;99.90;;;;;;4967070;28;20042;-70
2024/01/24 12:42:42;;;;;;;24.48;4.97;;;;;;;;;;4977493;28;20050;-70
2024/01/24 12:45:13;;;;;;;32.17;5.30;;;11.80;99.90;;;;;;4973833;28;20254;-70
2024/01/24 12:47:39;;;;;;;22.70;4.93;;;;;;;;;;4975752;28;20042;-70
2024/01/24 12:50:06;;;;;;;30.35;5.20;;;;;;;;;;4975764;28;20049;-70
2024/01/24 12:52:32;;;;;;;18.52;4.63;;;;;;;;;;4970826;28;20053;-70
2024/01/24 12:54:58;;;;;;;27.95;6.93;;;;;;;;;;4975038;28;20043;-70
2024/01/24 12:57:24;;;;;;;21.23;4.85;;;11.80;99.90;;;;;;4978201;28;20044;-70
2024/01/24 12:59:51;;;;;;;23.73;4.45;;;;;;;;;;4973443;28;20049;-70
2024/01/24 13:02:17;;;;;;;25.88;5.68;;;11.80;99.90;;;;;;4981272;28;20050;-70
2024/01/24 13:04:44;;;;;;;32.80;5.55;;;;;;;;;;4974003;28;20049;-70
2024/01/24 13:07:10;;;;;;;25.17;6.55;;;11.70;99.90;;;;;;4975101;28;20090;-70
2024/01/24 13:09:36;;;;;;;31.55;5.85;;;;;;;;;;4977347;28;20054;-71
2024/01/24 13:12:02;;;;;;;19.77;5.15;;;11.60;99.90;;;;;;4977148;28;20086;-70
2024/01/24 13:14:28;;;;;;;25.60;4.40;;;;;;;;;;4977454;28;20851;-71
2024/01/24 13:16:54;;;;;;;25.50;5.22;;;;;;;;;;4977927;28;20145;-70
2024/01/24 13:19:20;;;;;;;31.38;5.63;;;;;;;;;;4981656;28;20571;-70
2024/01/24 13:21:46;;;;;;;28.70;5.90;;;;;;;;;;4984168;28;20050;-70
2024/01/24 13:24:12;;;;;;;27.50;4.93;;;;;;;;;;4979905;28;20133;-70
2024/01/24 13:26:38;;;;;;;24.23;5.95;;;;;;;;;;4967007;28;20046;-70
2024/01/24 13:29:05;;;;;;;26.35;5.55;;;;;;;;;;4977612;28;20096;-70
2024/01/24 13:31:32;;;;;;;21.50;4.35;;;;;;;;;;4978360;28;20046;-71
2024/01/24 13:33:58;;;;;;;32.08;6.63;;;;;;;;;;4979535;28;22091;-70
2024/01/24 13:36:24;;;;;;;32.13;6.82;;;;;;;;;;4978347;28;20057;-70
2024/01/24 13:38:51;;;;;;;28.08;6.45;;;;;;;;;;4978217;28;20046;-71
2024/01/24 13:41:17;;;;;;;37.47;7.53;;;;;;;;;;4983339;28;20046;-70
2024/01/24 13:43:43;;;;;;;27.80;5.90;;;;;;;;;;4983879;28;20242;-70
2024/01/24 13:46:10;;;;;;;24.90;5.43;;;;;;;;;;4981375;28;20057;-70
2024/01/24 13:48:37;;;;;;;26.70;4.78;;;;;;;;;;4978416;28;20042;-70
2024/01/24 13:51:03;;;;;;;27.30;4.72;;;;;;;;;;4980826;28;20058;-70
2024/01/24 13:53:29;;;;;;;24.33;5.35;;;;;;;;;;4984696;28;20038;-71
2024/01/24 13:55:55;;;;;;;27.98;5.78;;;;;;;;;;4974043;28;20189;-70
2024/01/24 13:58:23;;;;;;;26.15;4.85;;;;;;;;;;4982251;28;20046;-70
2024/01/24 14:00:50;;;;;;;30.13;5.25;;;;;;;;;;4982187;28;20128;-70
2024/01/24 14:03:16;;;;;;;28.08;5.85;;;;;;;;;;4979895;28;20697;-71
2024/01/24 14:05:42;;;;;;;32.28;6.03;;;;;;;;;;4977585;28;20707;-70